Portada
METAR-TAF:

METAR-TAF

Aeropuertos :

Aeropuerto Internacional Roman Tmetuchl

Koror, Babeldaob, Palaos

latitud: 07-22N, longitud: 134-32E, altitud: 54 m

Observación

El informe se hizo hace 56 minutos, a las 16:50 UTC
Viento 6 kt del este
Temperatura 25°C
Humedad 94%
Presión 1009 hPa
Visibilidad: 24.1 km
Nubes dispersas a una altura de 1600 ft, Cumulonimbus.
Cielo nuboso a una altura de 29000 ft

METAR: PTRO 111650Z 08006KT 15SM SCT016CB BKN290 25/24 A2979 RMK CB S-SW

Hora: 02:46 (17:46 UTC)

Pronóstico

El informe se hizo hace 18 minutos, a las 17:28 UTC
Pronóstico válido del 11 a las 18 UTC al 12 a las 18 UTC
Viento 10 kt del este
Visibilidad: 10 km
Nubes dispersas a una altura de 1600 ft
Nubes dispersas a una altura de 4000 ft

TAF: PTRO 111728Z 1118/1218 09010KT P6SM SCT016 SCT040

Observaciones y pronósticos meteorológicos de más de 4000 aeropuertos (mensajes METAR y TAF).

Los puntos amarillos y rojos representan las estaciones disponibles.

Ponga el ratón en el punto deseado para ver el nombre de la estación.

Haga clic para ver las observaciones y los pronósticos meteorológicos.

Para cambiar el mapa : haga clic en los botones verdes con una cruz de color negro para hacer un zoom, en el botón verde con un guión para alejar o en las flechas verdes para mapas adyacentes.


METAR-TAF: